createdAt,value
2018-10-21T00:02:14.486Z,52.90
2018-10-21T00:04:50.596Z,52.97
2018-10-21T00:07:26.106Z,52.79
2018-10-21T00:10:02.059Z,52.78
2018-10-21T00:12:37.760Z,52.74
2018-10-21T00:15:13.521Z,52.89
2018-10-21T00:17:57.076Z,53.17
2018-10-21T00:20:42.872Z,53.68
2018-10-21T00:23:18.584Z,54.17
2018-10-21T00:25:54.018Z,53.59
2018-10-21T00:28:29.841Z,53.34
2018-10-21T00:31:05.711Z,54.11
2018-10-21T00:33:41.045Z,53.74
2018-10-21T00:36:16.722Z,54.06
2018-10-21T00:38:52.473Z,54.02
2018-10-21T00:41:28.253Z,53.84
2018-10-21T00:44:03.628Z,54.05
2018-10-21T00:46:39.359Z,53.29
2018-10-21T00:49:14.828Z,54.19
2018-10-21T00:51:50.157Z,54.01
2018-10-21T00:54:26.098Z,54.06
2018-10-21T00:57:01.994Z,54.02
2018-10-21T00:59:37.913Z,54.09
2018-10-21T01:02:14.174Z,53.78
2018-10-21T01:04:49.769Z,53.78
2018-10-21T01:07:25.723Z,54.15
2018-10-21T01:10:01.505Z,53.58
2018-10-21T01:12:37.084Z,54.04
2018-10-21T01:15:13.347Z,53.77
2018-10-21T01:17:54.884Z,53.76
2018-10-21T01:20:36.640Z,53.58
2018-10-21T01:23:12.212Z,53.74
2018-10-21T01:25:48.719Z,53.78
2018-10-21T01:28:24.765Z,53.96
2018-10-21T01:31:00.260Z,54.14
2018-10-21T01:33:36.125Z,54.29
2018-10-21T01:36:11.730Z,54.43
2018-10-21T01:38:47.695Z,54.76
2018-10-21T01:41:23.397Z,54.47
2018-10-21T01:43:59.195Z,54.71
2018-10-21T01:46:35.220Z,55.13
2018-10-21T01:49:10.991Z,54.71
2018-10-21T01:51:46.368Z,54.89
2018-10-21T01:54:26.000Z,55.45
2018-10-21T01:57:02.008Z,55.12
2018-10-21T01:59:37.797Z,55.46
2018-10-21T02:02:13.446Z,55.14
2018-10-21T02:04:48.864Z,55.02
2018-10-21T02:07:24.333Z,54.84
2018-10-21T02:09:59.811Z,55.15
2018-10-21T02:12:35.328Z,54.84
2018-10-21T02:15:11.865Z,55.08
2018-10-21T02:17:55.882Z,55.36
2018-10-21T02:20:42.322Z,55.08
2018-10-21T02:23:17.906Z,55.55
2018-10-21T02:25:53.376Z,55.75
2018-10-21T02:28:28.870Z,56.38
2018-10-21T02:31:04.016Z,56.81
2018-10-21T02:33:39.831Z,57.24
2018-10-21T02:36:15.430Z,57.42
2018-10-21T02:38:50.917Z,57.54
2018-10-21T02:41:42.410Z,57.74
2018-10-21T02:44:20.132Z,57.67
2018-10-21T02:46:56.684Z,57.54
2018-10-21T02:49:32.609Z,57.75
2018-10-21T02:52:10.331Z,57.84
2018-10-21T02:54:45.948Z,57.82
2018-10-21T02:57:21.378Z,57.90
2018-10-21T02:59:57.166Z,58.00
2018-10-21T03:02:32.629Z,57.49
2018-10-21T03:05:08.238Z,56.96
2018-10-21T03:07:50.592Z,57.59
2018-10-21T03:10:34.937Z,58.45
2018-10-21T03:13:10.445Z,58.85
2018-10-21T03:15:46.125Z,59.02
2018-10-21T03:18:21.882Z,59.31
2018-10-21T03:20:57.935Z,59.44
2018-10-21T03:23:34.301Z,58.87
2018-10-21T03:26:10.057Z,58.61
2018-10-21T03:28:45.534Z,58.11
2018-10-21T03:31:21.369Z,58.03
2018-10-21T03:33:57.199Z,57.63
2018-10-21T03:36:33.100Z,57.75
2018-10-21T03:39:10.097Z,57.47
2018-10-21T03:41:45.531Z,57.69
2018-10-21T03:44:21.076Z,57.91
2018-10-21T03:46:56.689Z,58.07
2018-10-21T03:49:32.438Z,58.01
2018-10-21T03:52:08.245Z,58.14
2018-10-21T03:54:47.543Z,58.48
2018-10-21T03:57:23.376Z,57.84
2018-10-21T03:59:59.091Z,58.22
2018-10-21T04:02:34.880Z,58.23
2018-10-21T04:05:10.489Z,57.52
2018-10-21T04:07:50.403Z,57.33
2018-10-21T04:10:32.015Z,57.23
2018-10-21T04:13:07.725Z,57.20
2018-10-21T04:16:00.054Z,56.88
2018-10-21T04:18:35.820Z,56.75
2018-10-21T04:21:11.161Z,56.80
2018-10-21T04:23:46.710Z,56.29
2018-10-21T04:26:22.775Z,55.93
2018-10-21T04:28:58.535Z,55.59
2018-10-21T04:31:34.256Z,55.57
2018-10-21T04:34:09.807Z,55.58
2018-10-21T04:36:45.769Z,56.00
2018-10-21T04:40:35.755Z,56.31
2018-10-21T04:43:11.313Z,56.79
2018-10-21T04:45:46.682Z,57.08
2018-10-21T04:48:22.415Z,56.90
2018-10-21T04:50:58.315Z,57.02
2018-10-21T04:53:33.697Z,57.04
2018-10-21T04:56:09.140Z,56.68
2018-10-21T04:58:44.892Z,56.79
2018-10-21T05:01:20.419Z,56.67
2018-10-21T05:03:56.075Z,56.40
2018-10-21T05:06:31.890Z,56.22
2018-10-21T05:09:07.791Z,56.46
2018-10-21T05:11:43.360Z,56.29
2018-10-21T05:14:18.677Z,56.46
2018-10-21T05:16:54.141Z,56.58
2018-10-21T05:19:29.643Z,57.16
2018-10-21T05:22:06.202Z,56.93
2018-10-21T05:24:41.825Z,56.53
2018-10-21T05:27:17.886Z,56.26
2018-10-21T05:29:53.482Z,56.35
2018-10-21T05:32:28.987Z,57.46
2018-10-21T05:35:04.861Z,57.72
2018-10-21T05:37:41.061Z,58.16
2018-10-21T05:43:09.284Z,58.35
2018-10-21T05:45:44.804Z,58.83
2018-10-21T05:48:20.298Z,59.35
2018-10-21T05:50:55.768Z,59.60
2018-10-21T05:53:31.386Z,59.91
2018-10-21T05:56:06.791Z,60.01
2018-10-21T05:58:42.616Z,60.09
2018-10-21T06:01:18.219Z,60.38
2018-10-21T06:03:53.830Z,60.49
2018-10-21T06:06:29.549Z,60.40
2018-10-21T06:09:06.411Z,60.84
2018-10-21T06:11:42.280Z,60.92
2018-10-21T06:14:17.832Z,60.79
2018-10-21T06:17:00.437Z,61.26
2018-10-21T06:19:39.196Z,61.67
2018-10-21T06:22:14.761Z,61.72
2018-10-21T06:24:51.109Z,61.83
2018-10-21T06:27:26.782Z,61.56
2018-10-21T06:30:02.381Z,62.18
2018-10-21T06:32:38.120Z,62.30
2018-10-21T06:35:30.663Z,62.22
2018-10-21T06:38:09.922Z,62.29
2018-10-21T06:40:45.532Z,62.88
2018-10-21T06:43:21.073Z,63.51
2018-10-21T06:45:56.538Z,64.22
2018-10-21T06:48:32.219Z,64.93
2018-10-21T06:51:07.887Z,64.80
2018-10-21T06:53:43.620Z,65.45
2018-10-21T06:56:19.406Z,65.53
2018-10-21T06:58:55.160Z,65.63
2018-10-21T07:01:31.191Z,65.56
2018-10-21T07:04:07.715Z,66.06
2018-10-21T07:06:43.306Z,66.24
2018-10-21T07:09:18.954Z,66.76
2018-10-21T07:11:54.470Z,66.84
2018-10-21T07:14:30.060Z,67.17
2018-10-21T07:17:06.185Z,67.29
2018-10-21T07:19:41.920Z,67.91
2018-10-21T07:22:17.628Z,68.14
2018-10-21T07:24:53.306Z,68.71
2018-10-21T07:27:28.954Z,68.74
2018-10-21T07:30:05.597Z,69.18
2018-10-21T07:32:41.528Z,69.11
2018-10-21T07:35:28.393Z,69.16
2018-10-21T07:38:04.252Z,69.12
2018-10-21T07:40:49.504Z,69.09
2018-10-21T07:43:24.933Z,69.91
2018-10-21T07:46:00.892Z,70.31
2018-10-21T07:48:37.007Z,69.68
2018-10-21T07:51:12.778Z,70.94
2018-10-21T07:53:48.256Z,70.98
2018-10-21T07:56:23.774Z,70.92
2018-10-21T07:58:59.437Z,70.59
2018-10-21T08:01:35.023Z,71.29
2018-10-21T08:04:10.817Z,71.21
2018-10-21T08:06:57.769Z,70.84
2018-10-21T08:09:33.241Z,70.75
2018-10-21T08:12:08.944Z,70.99
2018-10-21T08:14:44.968Z,69.34
2018-10-21T08:17:20.742Z,68.79
2018-10-21T08:19:56.217Z,68.40
2018-10-21T08:22:31.628Z,68.00
2018-10-21T08:25:07.657Z,68.18
2018-10-21T08:27:43.080Z,68.22
2018-10-21T08:30:30.218Z,68.89
2018-10-21T08:33:07.500Z,69.15
2018-10-21T08:35:42.943Z,69.76
2018-10-21T08:38:18.482Z,69.87
2018-10-21T08:40:54.495Z,71.59
2018-10-21T08:43:29.940Z,70.69
2018-10-21T08:46:05.675Z,71.05
2018-10-21T08:48:41.174Z,71.65
2018-10-21T08:51:16.887Z,72.80
2018-10-21T08:53:52.639Z,73.60
2018-10-21T08:56:28.384Z,73.70
2018-10-21T08:59:03.877Z,75.18
2018-10-21T09:01:39.328Z,74.78
2018-10-21T09:04:14.922Z,73.83
2018-10-21T09:06:50.615Z,73.62
2018-10-21T09:09:26.533Z,74.15
2018-10-21T09:12:02.056Z,74.83
2018-10-21T09:14:37.728Z,74.37
2018-10-21T09:17:13.474Z,73.87
2018-10-21T09:19:48.933Z,75.12
2018-10-21T09:22:24.417Z,74.81
2018-10-21T09:24:59.923Z,74.30
2018-10-21T09:27:35.839Z,73.38
2018-10-21T09:30:13.088Z,71.89
2018-10-21T09:32:54.487Z,70.86
2018-10-21T09:35:33.576Z,71.79
2018-10-21T09:38:09.429Z,70.53
2018-10-21T09:40:57.921Z,70.45
2018-10-21T09:43:34.501Z,71.23
2018-10-21T09:46:10.196Z,71.28
2018-10-21T09:48:45.957Z,66.96
2018-10-21T09:51:21.425Z,52.76
2018-10-21T09:53:57.037Z,46.82
2018-10-21T09:56:32.821Z,47.31
2018-10-21T09:59:08.892Z,49.98
2018-10-21T10:01:49.590Z,48.93
2018-10-21T10:04:25.838Z,49.23
2018-10-21T10:07:01.686Z,48.02
2018-10-21T10:09:37.491Z,46.57
2018-10-21T10:12:13.169Z,48.66
2018-10-21T10:14:48.815Z,49.86
2018-10-21T10:17:24.669Z,56.83
2018-10-21T10:20:00.153Z,59.32
2018-10-21T10:22:35.599Z,60.92
2018-10-21T10:25:11.975Z,61.44
2018-10-21T10:27:53.257Z,59.74
2018-10-21T10:30:38.772Z,61.49
2018-10-21T10:33:14.364Z,62.35
2018-10-21T10:35:50.009Z,61.18
2018-10-21T10:38:25.985Z,61.05
2018-10-21T10:41:01.559Z,60.96
2018-10-21T10:43:37.247Z,61.23
2018-10-21T10:46:12.718Z,60.75
2018-10-21T10:48:48.660Z,61.31
2018-10-21T10:51:24.187Z,61.83
2018-10-21T10:53:59.654Z,60.72
2018-10-21T10:56:35.444Z,61.43
2018-10-21T10:59:11.156Z,61.16
2018-10-21T11:01:46.706Z,60.27
2018-10-21T11:04:22.336Z,60.97
2018-10-21T11:06:57.922Z,61.23
2018-10-21T11:09:35.613Z,61.06
2018-10-21T11:12:11.446Z,59.49
2018-10-21T11:14:47.057Z,59.95
2018-10-21T11:17:22.852Z,59.04
2018-10-21T11:19:58.449Z,58.42
2018-10-21T11:22:33.924Z,57.01
2018-10-21T11:25:10.101Z,57.27
2018-10-21T11:27:45.740Z,57.50
2018-10-21T11:30:21.604Z,56.99
2018-10-21T11:32:59.235Z,57.09
2018-10-21T11:35:35.717Z,57.20
2018-10-21T11:38:16.678Z,56.79
2018-10-21T11:40:52.319Z,56.78
2018-10-21T11:43:27.843Z,56.34
2018-10-21T11:46:03.684Z,57.32
2018-10-21T11:48:39.360Z,56.93
2018-10-21T11:51:14.798Z,56.81
2018-10-21T11:53:50.552Z,56.69
2018-10-21T11:56:26.344Z,56.75
2018-10-21T11:59:01.885Z,56.75
2018-10-21T12:01:37.864Z,56.21
2018-10-21T12:04:13.625Z,56.38
2018-10-21T12:06:49.332Z,56.50
2018-10-21T12:09:25.126Z,56.34
2018-10-21T12:12:00.753Z,56.15
2018-10-21T12:14:36.234Z,56.27
2018-10-21T12:17:12.018Z,56.14
2018-10-21T12:19:47.801Z,56.47
2018-10-21T12:22:23.709Z,56.67
2018-10-21T12:24:59.471Z,56.62
2018-10-21T12:27:35.196Z,56.76
2018-10-21T12:30:10.833Z,57.04
2018-10-21T12:33:00.149Z,57.39
2018-10-21T12:35:44.438Z,57.23
2018-10-21T12:38:20.032Z,57.60
2018-10-21T12:40:55.917Z,57.29
2018-10-21T12:43:31.353Z,57.48
2018-10-21T12:46:06.993Z,57.15
2018-10-21T12:48:42.637Z,56.22
2018-10-21T12:51:18.306Z,56.17
2018-10-21T12:53:54.048Z,56.42
2018-10-21T12:56:29.896Z,55.89
2018-10-21T12:59:05.620Z,55.73
2018-10-21T13:01:41.024Z,55.75
2018-10-21T13:04:16.813Z,56.04
2018-10-21T13:06:52.504Z,56.11
2018-10-21T13:09:28.516Z,55.67
2018-10-21T13:12:04.308Z,55.97
2018-10-21T13:14:39.835Z,55.71
2018-10-21T13:17:15.546Z,55.82
2018-10-21T13:19:51.154Z,55.23
2018-10-21T13:22:27.053Z,55.44
2018-10-21T13:25:03.017Z,55.77
2018-10-21T13:27:39.194Z,55.43
2018-10-21T13:32:59.846Z,55.54
2018-10-21T13:35:48.436Z,55.92
2018-10-21T13:38:24.024Z,55.81
2018-10-21T13:40:59.463Z,55.71
2018-10-21T13:43:35.153Z,55.62
2018-10-21T13:46:10.684Z,55.74
2018-10-21T13:48:46.389Z,55.56
2018-10-21T13:51:22.132Z,55.89
2018-10-21T13:53:57.592Z,55.82
2018-10-21T13:56:33.153Z,55.94
2018-10-21T13:59:08.769Z,55.79
2018-10-21T14:01:44.519Z,55.67
2018-10-21T14:04:20.039Z,55.76
2018-10-21T14:06:55.772Z,55.71
2018-10-21T14:09:31.589Z,56.12
2018-10-21T14:12:07.211Z,56.61
2018-10-21T14:14:42.721Z,56.79
2018-10-21T14:17:18.352Z,56.92
2018-10-21T14:19:53.921Z,56.76
2018-10-21T14:22:29.406Z,56.85
2018-10-21T14:25:05.995Z,57.41
2018-10-21T14:27:42.111Z,57.32
2018-10-21T14:30:29.892Z,57.31
2018-10-21T14:33:06.074Z,57.71
2018-10-21T14:35:41.805Z,58.00
2018-10-21T14:38:17.336Z,58.27
2018-10-21T14:40:53.121Z,58.77
2018-10-21T14:43:28.668Z,58.64
2018-10-21T14:46:04.484Z,58.92
2018-10-21T14:48:40.056Z,59.05
2018-10-21T14:51:15.867Z,59.19
2018-10-21T14:53:51.505Z,59.28
2018-10-21T14:56:26.992Z,59.64
2018-10-21T14:59:02.767Z,59.14
2018-10-21T15:01:38.186Z,58.77
2018-10-21T15:04:13.718Z,59.34
2018-10-21T15:06:49.422Z,59.39
2018-10-21T15:09:24.935Z,59.14
2018-10-21T15:12:00.628Z,58.97
2018-10-21T15:14:36.822Z,58.93
2018-10-21T15:17:12.228Z,58.81
2018-10-21T15:19:47.634Z,58.33
2018-10-21T15:22:23.401Z,58.49
2018-10-21T15:24:58.823Z,58.93
2018-10-21T15:27:34.298Z,58.80
2018-10-21T15:30:11.004Z,59.38
2018-10-21T15:32:52.248Z,58.98
2018-10-21T15:35:33.820Z,59.40
2018-10-21T15:38:09.879Z,59.08
2018-10-21T15:40:45.848Z,59.25
2018-10-21T15:43:21.343Z,59.49
2018-10-21T15:45:57.517Z,59.69
2018-10-21T15:48:33.576Z,59.84
2018-10-21T15:51:09.453Z,59.86
2018-10-21T15:53:45.239Z,59.87
2018-10-21T15:56:20.762Z,59.76
2018-10-21T15:58:56.408Z,59.65
2018-10-21T16:01:31.880Z,59.90
2018-10-21T16:04:07.656Z,60.03
2018-10-21T16:06:43.879Z,60.52
2018-10-21T16:09:19.785Z,60.40
2018-10-21T16:11:55.501Z,60.21
2018-10-21T16:14:31.263Z,60.51
2018-10-21T16:17:06.970Z,60.40
2018-10-21T16:19:42.456Z,60.46
2018-10-21T16:22:18.481Z,60.63
2018-10-21T16:24:54.234Z,60.82
2018-10-21T16:27:29.981Z,61.05
2018-10-21T16:30:07.783Z,60.96
2018-10-21T16:32:46.760Z,60.97
2018-10-21T16:35:28.956Z,61.22
2018-10-21T16:38:04.529Z,61.25
2018-10-21T16:40:40.207Z,61.28
2018-10-21T16:43:15.676Z,61.48
2018-10-21T16:45:51.062Z,61.64
2018-10-21T16:48:26.775Z,61.90
2018-10-21T16:51:12.737Z,62.36
2018-10-21T16:53:49.061Z,62.46
2018-10-21T16:56:24.461Z,62.76
2018-10-21T16:59:00.339Z,62.57
2018-10-21T17:01:36.231Z,62.41
2018-10-21T17:04:11.717Z,62.26
2018-10-21T17:06:47.688Z,62.35
2018-10-21T17:09:23.348Z,62.83
2018-10-21T17:11:59.325Z,62.43
2018-10-21T17:14:34.772Z,62.52
2018-10-21T17:17:10.244Z,62.72
2018-10-21T17:19:46.038Z,62.90
2018-10-21T17:22:21.881Z,63.31
2018-10-21T17:24:57.472Z,62.91
2018-10-21T17:27:33.353Z,63.39
2018-10-21T17:30:13.113Z,63.21
2018-10-21T17:32:54.245Z,63.37
2018-10-21T17:35:30.012Z,63.33
2018-10-21T17:38:11.134Z,63.39
2018-10-21T17:40:54.228Z,63.73
2018-10-21T17:43:29.611Z,63.73
2018-10-21T17:46:08.496Z,63.94
2018-10-21T17:48:44.254Z,63.90
2018-10-21T17:51:19.836Z,63.68
2018-10-21T17:53:55.231Z,64.01
2018-10-21T17:56:31.081Z,64.07
2018-10-21T17:59:06.786Z,64.04
2018-10-21T18:01:42.844Z,64.37
2018-10-21T18:04:18.773Z,63.77
2018-10-21T18:06:54.472Z,64.07
2018-10-21T18:09:30.257Z,63.77
2018-10-21T18:12:06.161Z,63.67
2018-10-21T18:14:41.564Z,63.70
2018-10-21T18:17:17.319Z,63.83
2018-10-21T18:19:52.850Z,63.59
2018-10-21T18:22:28.718Z,63.92
2018-10-21T18:25:04.625Z,64.28
2018-10-21T18:27:40.997Z,63.53
2018-10-21T18:30:34.172Z,63.41
2018-10-21T18:33:09.703Z,63.14
2018-10-21T18:35:45.446Z,63.99
2018-10-21T18:38:21.185Z,63.83
2018-10-21T18:40:56.795Z,64.04
2018-10-21T18:43:32.256Z,64.13
2018-10-21T18:46:08.193Z,63.85
2018-10-21T18:48:44.342Z,64.34
2018-10-21T18:51:20.261Z,64.32
2018-10-21T18:53:55.881Z,64.06
2018-10-21T18:56:31.518Z,64.28
2018-10-21T18:59:07.250Z,64.28
2018-10-21T19:01:42.967Z,63.66
2018-10-21T19:04:18.457Z,63.86
2018-10-21T19:06:54.288Z,64.21
2018-10-21T19:09:30.273Z,63.89
2018-10-21T19:12:06.541Z,63.73
2018-10-21T19:14:41.920Z,64.05
2018-10-21T19:17:17.425Z,64.33
2018-10-21T19:19:53.287Z,64.35
2018-10-21T19:22:29.352Z,64.67
2018-10-21T19:25:06.314Z,64.39
2018-10-21T19:27:43.181Z,63.91
2018-10-21T19:30:34.360Z,64.13
2018-10-21T19:33:09.858Z,64.34
2018-10-21T19:35:50.858Z,63.86
2018-10-21T19:38:26.544Z,64.45
2018-10-21T19:41:02.086Z,64.96
2018-10-21T19:43:37.784Z,64.91
2018-10-21T19:46:13.630Z,64.83
2018-10-21T19:48:49.547Z,65.27
2018-10-21T19:51:25.182Z,65.67
2018-10-21T19:54:00.935Z,65.03
2018-10-21T19:56:36.888Z,64.96
2018-10-21T19:59:12.482Z,65.18
2018-10-21T20:01:48.218Z,65.13
2018-10-21T20:04:23.828Z,65.30
2018-10-21T20:06:59.558Z,64.92
2018-10-21T20:09:35.447Z,64.83
2018-10-21T20:12:10.965Z,64.03
2018-10-21T20:14:46.582Z,63.94
2018-10-21T20:17:22.188Z,64.39
2018-10-21T20:19:57.999Z,64.11
2018-10-21T20:22:33.486Z,64.54
2018-10-21T20:25:10.090Z,64.83
2018-10-21T20:27:54.506Z,64.84
2018-10-21T20:30:48.567Z,64.80
2018-10-21T20:33:24.356Z,65.07
2018-10-21T20:36:00.077Z,64.57
2018-10-21T20:38:35.495Z,64.78
2018-10-21T20:41:11.648Z,64.58
2018-10-21T20:43:47.454Z,64.10
2018-10-21T20:46:22.994Z,64.51
2018-10-21T20:48:58.623Z,64.12
2018-10-21T20:51:34.593Z,63.76
2018-10-21T20:54:10.351Z,63.94
2018-10-21T20:56:46.128Z,63.50
2018-10-21T20:59:22.416Z,63.61
2018-10-21T21:01:58.292Z,63.33
2018-10-21T21:04:33.741Z,64.29
2018-10-21T21:07:09.593Z,64.53
2018-10-21T21:09:45.207Z,64.41
2018-10-21T21:12:20.967Z,64.66
2018-10-21T21:14:56.373Z,64.80
2018-10-21T21:17:32.195Z,65.09
2018-10-21T21:20:10.519Z,65.44
2018-10-21T21:22:47.019Z,65.51
2018-10-21T21:25:22.583Z,66.03
2018-10-21T21:28:07.733Z,65.76
2018-10-21T21:30:54.637Z,65.99
2018-10-21T21:33:30.245Z,66.42
2018-10-21T21:36:06.732Z,66.25
2018-10-21T21:38:42.433Z,65.79
2018-10-21T21:41:17.894Z,65.64
2018-10-21T21:43:53.601Z,65.25
2018-10-21T21:46:29.229Z,65.42
2018-10-21T21:49:06.079Z,65.71
2018-10-21T21:51:41.874Z,65.77
2018-10-21T21:54:17.416Z,66.30
2018-10-21T21:56:53.381Z,66.19
2018-10-21T21:59:28.813Z,65.91
2018-10-21T22:02:04.825Z,66.17
2018-10-21T22:04:40.315Z,66.37
2018-10-21T22:07:16.035Z,66.31
2018-10-21T22:09:51.784Z,66.29
2018-10-21T22:12:27.240Z,66.43
2018-10-21T22:15:04.044Z,67.08
2018-10-21T22:17:41.682Z,66.89
2018-10-21T22:20:27.353Z,67.20
2018-10-21T22:23:04.255Z,67.57
2018-10-21T22:25:44.671Z,67.51
2018-10-21T22:28:20.180Z,66.86
2018-10-21T22:30:55.965Z,67.15
2018-10-21T22:33:31.380Z,66.65
2018-10-21T22:36:14.036Z,66.55
2018-10-21T22:38:49.765Z,66.07
2018-10-21T22:41:25.231Z,66.07
2018-10-21T22:44:00.933Z,66.50
2018-10-21T22:46:36.647Z,66.50
2018-10-21T22:49:12.346Z,66.78
2018-10-21T22:51:47.934Z,65.52
2018-10-21T22:54:23.545Z,65.70
2018-10-21T22:56:59.514Z,65.53
2018-10-21T22:59:35.065Z,65.73
2018-10-21T23:02:10.684Z,65.64
2018-10-21T23:04:47.128Z,65.38
2018-10-21T23:07:22.621Z,65.60
2018-10-21T23:09:58.150Z,65.88
2018-10-21T23:12:33.849Z,65.95
2018-10-21T23:15:09.882Z,66.31
2018-10-21T23:17:50.697Z,66.85
2018-10-21T23:20:34.296Z,66.42
2018-10-21T23:23:09.628Z,66.87
2018-10-21T23:25:45.513Z,66.62
2018-10-21T23:28:21.242Z,67.05
2018-10-21T23:30:56.978Z,66.97
2018-10-21T23:33:32.432Z,67.22
2018-10-21T23:36:07.978Z,67.18
2018-10-21T23:38:43.652Z,67.24
2018-10-21T23:41:19.034Z,67.30
2018-10-21T23:43:54.538Z,67.30
2018-10-21T23:46:30.094Z,67.50
2018-10-21T23:49:06.057Z,68.05
2018-10-21T23:51:44.000Z,68.12
2018-10-21T23:54:19.681Z,67.68
2018-10-21T23:56:55.388Z,67.77
2018-10-21T23:59:31.358Z,67.42
